Time;durP1;ratioP1;P1;durP2;ratioP2;P2;SDS_P1;SDS_P2;PMS_P1;PMS_P2;Temp;Humidity;BMP_temperature;BMP_pressure;BME280_temperature;BME280_humidity;BME280_pressure;Samples;Min_cycle;Max_cycle;Signal;HPM_P1;HPM_P2
2022/05/21 00:00:22;;;;;;;10.65;6.68;;;17.50;68.50;;;;;;5054149;28;20056;-16
2022/05/21 00:02:50;;;;;;;9.23;6.07;;;17.60;68.50;;;;;;5054256;28;20040;-15
2022/05/21 00:05:19;;;;;;;11.10;6.75;;;17.50;68.70;;;;;;5054213;28;20473;-14
2022/05/21 00:07:45;;;;;;;12.70;7.32;;;17.50;68.60;;;;;;5054462;28;20120;-14
2022/05/21 00:10:13;;;;;;;9.63;7.05;;;17.40;69.00;;;;;;5054132;28;20061;-15
2022/05/21 00:12:41;;;;;;;12.70;7.45;;;17.40;69.50;;;;;;5054341;28;20163;-14
2022/05/21 00:15:08;;;;;;;10.48;7.50;;;17.30;69.80;;;;;;5053937;28;20533;-16
2022/05/21 00:17:34;;;;;;;8.70;6.70;;;17.20;69.60;;;;;;5053976;28;20029;-14
2022/05/21 00:20:00;;;;;;;6.93;5.32;;;17.20;69.60;;;;;;5054109;28;20510;-14
2022/05/21 00:22:27;;;;;;;8.93;6.68;;;17.20;69.60;;;;;;5053760;28;20492;-16
2022/05/21 00:24:53;;;;;;;14.80;7.80;;;17.20;69.70;;;;;;5053813;28;20096;-16
2022/05/21 00:27:19;;;;;;;10.88;7.03;;;17.20;70.00;;;;;;5054010;28;20025;-16
2022/05/21 00:29:45;;;;;;;10.13;5.60;;;17.10;70.30;;;;;;5053834;28;20032;-14
2022/05/21 00:32:11;;;;;;;11.75;7.72;;;17.10;70.10;;;;;;5054062;28;20517;-16
2022/05/21 00:34:37;;;;;;;8.80;6.47;;;17.00;70.60;;;;;;5053613;28;20036;-15
2022/05/21 00:37:04;;;;;;;10.85;6.57;;;17.00;70.60;;;;;;5053509;28;20029;-14
2022/05/21 00:39:30;;;;;;;10.23;7.90;;;17.00;70.20;;;;;;5054230;28;20124;-16
2022/05/21 00:42:03;;;;;;;9.43;6.50;;;17.00;70.50;;;;;;5053535;28;20552;-16
2022/05/21 00:44:29;;;;;;;9.13;7.05;;;16.90;70.70;;;;;;5053104;28;20510;-15
2022/05/21 00:46:55;;;;;;;10.70;7.38;;;16.90;71.00;;;;;;5053651;28;20025;-14
2022/05/21 00:49:33;;;;;;;11.25;6.47;;;16.90;71.10;;;;;;5053692;28;20057;-15
2022/05/21 00:52:12;;;;;;;10.43;7.78;;;16.90;71.00;;;;;;5053556;28;20481;-14
2022/05/21 00:54:47;;;;;;;12.90;8.68;;;16.90;71.20;;;;;;5053437;28;20033;-15
2022/05/21 00:57:23;;;;;;;9.20;7.25;;;16.80;71.10;;;;;;5053336;28;20082;-14
2022/05/21 00:59:54;;;;;;;9.88;7.35;;;16.70;71.20;;;;;;5035539;28;20027;-14
2022/05/21 01:02:31;;;;;;;11.65;8.77;;;16.70;71.40;;;;;;5053232;28;20017;-14
2022/05/21 01:04:59;;;;;;;11.63;8.63;;;16.60;71.50;;;;;;5053126;28;20115;-14
2022/05/21 01:07:26;;;;;;;9.65;7.35;;;16.50;71.50;;;;;;5034987;28;20107;-14
2022/05/21 01:09:55;;;;;;;11.35;8.15;;;16.50;71.80;;;;;;5053082;28;20048;-16
2022/05/21 01:12:28;;;;;;;15.38;10.68;;;16.50;71.90;;;;;;5052948;28;20049;-14
2022/05/21 01:15:00;;;;;;;12.02;7.28;;;16.40;71.90;;;;;;5053328;28;20033;-15
2022/05/21 01:17:26;;;;;;;11.43;8.38;;;16.40;72.00;;;;;;5053163;28;20049;-16
2022/05/21 01:20:13;;;;;;;13.35;7.53;;;16.40;72.30;;;;;;5052885;28;20024;-15
2022/05/21 01:22:48;;;;;;;12.98;8.38;;;16.40;72.30;;;;;;5052983;28;20048;-14
2022/05/21 01:25:17;;;;;;;10.68;7.43;;;16.40;72.60;;;;;;5035178;28;20461;-16
2022/05/21 01:27:44;;;;;;;11.27;9.13;;;16.40;72.70;;;;;;5053208;28;20052;-14
2022/05/21 01:30:15;;;;;;;16.98;9.55;;;16.40;73.00;;;;;;5053168;28;20091;-16
2022/05/21 01:32:48;;;;;;;16.30;10.50;;;16.30;72.60;;;;;;5052943;28;20086;-15
2022/05/21 01:35:16;;;;;;;17.00;13.18;;;16.30;72.90;;;;;;5053070;28;20116;-15
2022/05/21 01:37:42;;;;;;;13.65;9.07;;;16.30;72.90;;;;;;5052858;28;20048;-16
2022/05/21 01:40:10;;;;;;;11.27;8.80;;;16.30;73.30;;;;;;5052896;28;20381;-15
2022/05/21 01:42:36;;;;;;;13.90;7.35;;;16.30;73.30;;;;;;5052591;28;20033;-17
2022/05/21 01:45:04;;;;;;;10.48;6.80;;;16.30;73.30;;;;;;5052878;28;20091;-16
2022/05/21 01:47:34;;;;;;;9.27;7.28;;;16.20;73.20;;;;;;5052726;28;20032;-16
2022/05/21 01:50:01;;;;;;;11.77;8.30;;;16.20;73.30;;;;;;5052895;28;20021;-14
2022/05/21 01:52:28;;;;;;;9.50;7.45;;;16.20;73.60;;;;;;5052792;28;20146;-16
2022/05/21 01:54:54;;;;;;;8.80;6.07;;;16.10;73.90;;;;;;5053196;28;20022;-16
2022/05/21 01:57:21;;;;;;;10.43;6.80;;;16.00;73.70;;;;;;5052820;28;20170;-16
2022/05/21 01:59:48;;;;;;;11.07;8.15;;;16.00;73.70;;;;;;5052652;28;20021;-15
2022/05/21 02:02:15;;;;;;;8.38;6.57;;;16.00;74.20;;;;;;5052507;28;20029;-15
2022/05/21 02:04:41;;;;;;;9.00;6.80;;;16.00;74.00;;;;;;5052807;28;20096;-16
2022/05/21 02:07:06;;;;;;;10.02;7.50;;;15.90;74.00;;;;;;5052808;28;20160;-14
2022/05/21 02:09:32;;;;;;;9.88;6.78;;;15.90;74.40;;;;;;5052544;28;20021;-15
2022/05/21 02:11:58;;;;;;;10.25;7.20;;;15.90;74.50;;;;;;5052503;28;20021;-15
2022/05/21 02:14:24;;;;;;;13.57;8.35;;;15.90;74.30;;;;;;5052279;28;20096;-14
2022/05/21 02:16:50;;;;;;;11.63;6.85;;;15.80;74.80;;;;;;5035072;28;20120;-16
2022/05/21 02:19:16;;;;;;;10.07;7.47;;;15.80;74.80;;;;;;5052925;28;20055;-15
2022/05/21 02:21:42;;;;;;;12.30;8.20;;;15.70;75.30;;;;;;5056398;28;20492;-14
2022/05/21 02:24:09;;;;;;;15.52;10.52;;;15.70;75.00;;;;;;5056102;28;20039;-15
2022/05/21 02:26:37;;;;;;;17.65;11.38;;;15.70;75.10;;;;;;5056032;28;20023;-16
2022/05/21 02:29:04;;;;;;;13.60;10.07;;;15.60;75.30;;;;;;5056276;28;20082;-16
2022/05/21 02:31:30;;;;;;;7.68;6.25;;;15.60;75.40;;;;;;5056393;28;20031;-17
2022/05/21 02:33:56;;;;;;;9.98;6.93;;;15.60;75.40;;;;;;5056174;28;20036;-14
2022/05/21 02:39:25;;;;;;;12.00;8.50;;;15.60;75.30;;;;;;5055742;28;20025;-16
2022/05/21 02:39:26;;;;;;;11.45;8.02;;;15.50;75.70;;;;;;5056028;28;20380;-17
2022/05/21 02:41:52;;;;;;;;;;;15.50;76.00;;;;;;5056311;28;20092;-16
2022/05/21 02:44:18;;;;;;;13.23;9.98;;;15.40;76.30;;;;;;5037519;28;19966;-15
2022/05/21 02:46:44;;;;;;;18.17;13.45;;;15.40;75.40;;;;;;5056009;28;20432;-15
2022/05/21 02:49:10;;;;;;;15.60;10.05;;;15.50;75.70;;;;;;5038113;28;20108;-16
2022/05/21 02:51:36;;;;;;;13.60;9.13;;;15.40;76.00;;;;;;5055935;28;20548;-17
2022/05/21 02:54:02;;;;;;;11.13;8.30;;;15.40;76.10;;;;;;5037753;28;20056;-14
2022/05/21 02:56:28;;;;;;;10.25;8.32;;;15.40;76.20;;;;;;5055526;28;20029;-15
2022/05/21 02:58:54;;;;;;;14.90;10.60;;;15.40;76.20;;;;;;5055884;28;20033;-16
2022/05/21 03:01:20;;;;;;;12.20;8.65;;;15.40;76.40;;;;;;5055702;28;20025;-15
2022/05/21 03:03:46;;;;;;;11.13;8.63;;;15.40;76.40;;;;;;5055464;28;20481;-14
2022/05/21 03:06:12;;;;;;;9.95;6.20;;;15.40;76.40;;;;;;5055308;28;20081;-14
2022/05/21 03:11:22;;;;;;;12.57;8.57;;;15.40;76.40;;;;;;5055611;28;20072;-17
2022/05/21 03:13:48;;;;;;;14.73;9.93;;;15.40;76.60;;;;;;5055537;28;20072;-15
2022/05/21 03:16:14;;;;;;;13.18;9.73;;;15.40;76.60;;;;;;5055137;28;20036;-16
2022/05/21 03:18:40;;;;;;;16.23;11.85;;;15.40;77.10;;;;;;5055384;28;20025;-16
2022/05/21 03:21:06;;;;;;;16.67;10.45;;;15.30;77.10;;;;;;5055033;28;20025;-15
2022/05/21 03:23:32;;;;;;;20.88;13.10;;;15.30;77.00;;;;;;5037144;28;20028;-16
2022/05/21 03:25:58;;;;;;;13.45;9.35;;;15.30;77.20;;;;;;5055150;28;20021;-16
2022/05/21 03:28:24;;;;;;;16.52;13.10;;;15.20;77.40;;;;;;5054801;28;20496;-16
2022/05/21 03:30:50;;;;;;;12.93;8.95;;;15.20;77.30;;;;;;5054456;28;20029;-14
2022/05/21 03:33:17;;;;;;;15.70;11.70;;;15.20;77.50;;;;;;5036990;28;20170;-15
2022/05/21 03:35:43;;;;;;;13.98;9.95;;;15.30;77.90;;;;;;5054785;28;20484;-16
2022/05/21 03:38:10;;;;;;;13.43;10.90;;;15.20;78.00;;;;;;5054812;28;20435;-16
2022/05/21 03:40:37;;;;;;;13.35;9.77;;;15.20;78.10;;;;;;5054593;28;20043;-14
2022/05/21 03:43:03;;;;;;;14.85;8.63;;;15.20;78.10;;;;;;5054912;28;20524;-16
2022/05/21 03:45:30;;;;;;;11.13;8.90;;;15.20;77.70;;;;;;5054512;28;20064;-15
2022/05/21 03:47:56;;;;;;;14.43;8.02;;;15.20;77.70;;;;;;5054568;28;20033;-15
2022/05/21 03:50:25;;;;;;;12.63;10.40;;;15.10;77.60;;;;;;5054321;28;20029;-16
2022/05/21 03:52:51;;;;;;;16.20;10.57;;;15.20;78.10;;;;;;5054801;28;20029;-14
2022/05/21 03:55:17;;;;;;;13.05;9.35;;;15.10;78.20;;;;;;5054706;28;20032;-15
2022/05/21 03:57:43;;;;;;;12.00;8.40;;;15.10;78.20;;;;;;5036568;28;20032;-16
2022/05/21 04:00:13;;;;;;;11.43;8.95;;;15.10;77.80;;;;;;5054652;28;20098;-14
2022/05/21 04:02:40;;;;;;;11.45;9.10;;;15.10;77.70;;;;;;5054582;28;20025;-17
2022/05/21 04:05:08;;;;;;;11.60;8.23;;;15.20;77.70;;;;;;5054285;28;20507;-15
2022/05/21 04:07:34;;;;;;;13.32;9.00;;;15.20;77.70;;;;;;5054154;28;20033;-16
2022/05/21 04:10:00;;;;;;;12.57;10.25;;;15.20;77.60;;;;;;5054460;28;20035;-16
2022/05/21 04:12:26;;;;;;;13.10;10.23;;;15.20;77.80;;;;;;5053923;28;20087;-16
2022/05/21 04:14:52;;;;;;;14.00;10.18;;;15.20;77.80;;;;;;5054276;28;20116;-15
2022/05/21 04:17:18;;;;;;;15.85;11.95;;;15.20;78.00;;;;;;5054302;28;20033;-14
2022/05/21 04:19:44;;;;;;;12.25;10.10;;;15.20;78.00;;;;;;5053902;28;20029;-14
2022/05/21 04:22:10;;;;;;;12.95;10.07;;;15.30;78.20;;;;;;5054013;28;20029;-15
2022/05/21 04:24:37;;;;;;;15.13;11.93;;;15.30;77.90;;;;;;5053936;28;20051;-17
2022/05/21 04:27:03;;;;;;;13.98;10.70;;;15.30;78.20;;;;;;5054226;28;20024;-15
2022/05/21 04:29:29;;;;;;;14.73;10.65;;;15.40;78.50;;;;;;5053701;28;20021;-16
2022/05/21 04:31:55;;;;;;;13.70;9.80;;;15.40;78.30;;;;;;5053766;28;20024;-14
2022/05/21 04:34:21;;;;;;;16.27;10.52;;;15.40;78.00;;;;;;5053249;28;20025;-16
2022/05/21 04:36:46;;;;;;;19.27;14.95;;;15.50;78.10;;;;;;5053646;28;20033;-17
2022/05/21 04:39:12;;;;;;;20.83;15.23;;;15.50;78.40;;;;;;5053664;28;20087;-15
2022/05/21 04:41:38;;;;;;;13.90;11.13;;;15.60;78.40;;;;;;5053823;28;20033;-14
2022/05/21 04:44:07;;;;;;;13.35;10.07;;;15.60;78.30;;;;;;5034993;28;20409;-16
2022/05/21 04:46:35;;;;;;;14.23;10.55;;;15.70;78.40;;;;;;5053253;28;20467;-14
2022/05/21 04:49:01;;;;;;;16.38;12.77;;;15.70;78.20;;;;;;5053831;28;20021;-16
2022/05/21 04:51:27;;;;;;;16.40;11.60;;;15.90;78.00;;;;;;5053751;28;20032;-16
2022/05/21 04:53:53;;;;;;;13.88;8.82;;;15.90;77.90;;;;;;5053492;28;20032;-16
2022/05/21 04:56:19;;;;;;;17.48;12.40;;;15.90;77.60;;;;;;5053043;28;20040;-14
2022/05/21 04:58:46;;;;;;;19.15;15.13;;;16.00;77.60;;;;;;5053592;28;20108;-14
2022/05/21 05:01:12;;;;;;;17.83;13.18;;;16.10;77.50;;;;;;5054073;28;20055;-14
2022/05/21 05:03:38;;;;;;;18.20;15.10;;;16.20;77.50;;;;;;5053391;28;20396;-15
2022/05/21 05:06:06;;;;;;;19.35;14.05;;;16.30;79.00;;;;;;5053186;28;20048;-14
2022/05/21 05:08:32;;;;;;;17.98;14.02;;;16.40;78.50;;;;;;5053201;28;20035;-14
2022/05/21 05:10:58;;;;;;;44.28;30.02;;;16.50;78.10;;;;;;5053032;28;20029;-16
2022/05/21 05:13:24;;;;;;;51.83;34.08;;;16.70;78.20;;;;;;5053488;28;20139;-15
2022/05/21 05:15:50;;;;;;;36.17;23.95;;;16.80;78.20;;;;;;5053238;28;20027;-14
2022/05/21 05:18:27;;;;;;;38.40;26.27;;;16.90;77.60;;;;;;5053124;28;20365;-15
2022/05/21 05:20:53;;;;;;;33.05;22.08;;;17.10;77.20;;;;;;5052965;28;20031;-14
2022/05/21 05:23:20;;;;;;;40.17;26.67;;;17.30;77.80;;;;;;5052891;28;20031;-14
2022/05/21 05:25:46;;;;;;;39.50;25.23;;;17.40;78.60;;;;;;5053193;28;20017;-16
2022/05/21 05:28:23;;;;;;;32.20;22.20;;;17.60;78.70;;;;;;5053081;28;20400;-15
2022/05/21 05:30:49;;;;;;;25.83;17.67;;;17.90;77.50;;;;;;5053231;28;20028;-16
2022/05/21 05:33:19;;;;;;;20.15;14.45;;;18.00;77.80;;;;;;5052901;28;20079;-15
2022/05/21 05:35:48;;;;;;;19.50;15.38;;;18.20;76.20;;;;;;5053023;28;20032;-14
2022/05/21 05:38:15;;;;;;;16.30;12.90;;;18.30;76.40;;;;;;5052612;28;20044;-14
2022/05/21 05:40:45;;;;;;;16.05;11.40;;;18.50;75.70;;;;;;5053335;28;20412;-14
2022/05/21 05:43:15;;;;;;;22.25;12.48;;;18.60;74.80;;;;;;5052861;28;20017;-14
2022/05/21 05:45:41;;;;;;;18.33;12.82;;;18.80;73.90;;;;;;5052590;28;20041;-15
2022/05/21 05:48:07;;;;;;;14.43;11.10;;;19.00;73.70;;;;;;5052761;28;20366;-13
2022/05/21 05:50:33;;;;;;;22.23;11.68;;;19.10;73.00;;;;;;5052610;28;20021;-14
2022/05/21 05:53:07;;;;;;;14.75;10.55;;;19.30;72.60;;;;;;5052716;28;20116;-14
2022/05/21 05:55:36;;;;;;;13.85;11.20;;;19.40;72.80;;;;;;5056802;28;20075;-14
2022/05/21 05:59:48;;;;;;;15.02;11.32;;;19.60;72.60;;;;;;5056656;28;20528;-14
2022/05/21 06:00:48;;;;;;;14.65;11.38;;;19.70;71.80;;;;;;5056844;28;20032;-16
2022/05/21 06:03:14;;;;;;;15.70;11.48;;;19.90;71.30;;;;;;5056460;28;20025;-14
2022/05/21 06:05:40;;;;;;;11.95;8.88;;;20.00;71.10;;;;;;5056425;28;20029;-14
2022/05/21 06:08:07;;;;;;;14.68;10.35;;;20.00;70.30;;;;;;5056429;28;20025;-14
2022/05/21 06:10:37;;;;;;;12.40;9.90;;;20.20;71.10;;;;;;5056291;28;20036;-15
2022/05/21 06:13:04;;;;;;;15.15;9.90;;;20.30;70.40;;;;;;5056767;28;20032;-15
2022/05/21 06:15:31;;;;;;;12.57;10.38;;;20.40;70.50;;;;;;5056572;28;20033;-14
2022/05/21 06:17:57;;;;;;;16.05;9.23;;;20.40;68.70;;;;;;5056596;28;20032;-15
2022/05/21 06:20:26;;;;;;;15.70;11.02;;;20.50;69.00;;;;;;5056008;28;20554;-15
2022/05/21 06:22:53;;;;;;;16.83;11.15;;;20.70;69.10;;;;;;5056474;28;20029;-14
2022/05/21 06:25:23;;;;;;;16.55;9.85;;;20.80;68.70;;;;;;5056458;28;20029;-16
2022/05/21 06:27:52;;;;;;;13.13;8.23;;;21.00;68.00;;;;;;5056372;28;20032;-14
2022/05/21 06:30:20;;;;;;;12.13;8.35;;;21.10;67.90;;;;;;5055947;28;20542;-14
2022/05/21 06:32:46;;;;;;;11.35;7.93;;;21.30;67.40;;;;;;5056802;28;20017;-16
2022/05/21 06:35:13;;;;;;;15.05;9.20;;;21.50;66.90;;;;;;5055794;28;20111;-14
2022/05/21 06:37:39;;;;;;;13.35;8.82;;;21.60;66.60;;;;;;5056094;28;20028;-14
2022/05/21 06:40:08;;;;;;;12.25;7.55;;;21.90;65.90;;;;;;5056256;28;20025;-16
2022/05/21 06:42:34;;;;;;;9.23;6.72;;;22.00;65.60;;;;;;5055769;28;20029;-13
2022/05/21 06:45:00;;;;;;;10.18;7.55;;;22.20;65.40;;;;;;5055972;28;20033;-15
2022/05/21 06:47:27;;;;;;;12.75;9.23;;;22.30;65.00;;;;;;5056035;28;20036;-14
2022/05/21 06:49:55;;;;;;;9.45;6.70;;;22.40;64.10;;;;;;5055601;28;20039;-14
2022/05/21 06:52:25;;;;;;;13.98;8.68;;;22.60;64.60;;;;;;5056012;28;20025;-14
2022/05/21 06:54:51;;;;;;;11.45;7.68;;;22.70;64.60;;;;;;5055534;28;20040;-14
2022/05/21 06:57:19;;;;;;;8.18;5.90;;;22.80;63.90;;;;;;5055644;28;20039;-13
2022/05/21 06:59:46;;;;;;;8.55;5.95;;;22.90;63.80;;;;;;5055600;28;20493;-14
2022/05/21 07:02:12;;;;;;;9.00;5.53;;;23.10;63.50;;;;;;5055788;28;20021;-14
2022/05/21 07:07:35;;;;;;;8.52;5.07;;;23.50;62.50;;;;;;5040279;28;20028;-14
2022/05/21 07:10:13;;;;;;;6.57;4.60;;;23.70;62.10;;;;;;5055587;28;20042;-15
2022/05/21 07:12:39;;;;;;;13.00;7.00;;;24.00;61.30;;;;;;5055634;28;20053;-14
2022/05/21 07:15:07;;;;;;;9.88;6.32;;;24.20;60.30;;;;;;5055043;28;20033;-15
2022/05/21 07:17:33;;;;;;;8.18;5.25;;;24.30;60.40;;;;;;5055924;28;20035;-15
2022/05/21 07:20:09;;;;;;;8.00;5.43;;;24.40;60.20;;;;;;5054984;28;20388;-13
2022/05/21 07:22:35;;;;;;;10.45;5.18;;;24.50;60.20;;;;;;5054977;28;20025;-12
2022/05/21 07:25:02;;;;;;;8.75;5.22;;;24.70;59.50;;;;;;5055280;28;20023;-13
2022/05/21 07:27:29;;;;;;;8.48;4.97;;;24.90;58.30;;;;;;5055302;28;20025;-13
2022/05/21 07:29:55;;;;;;;6.70;4.57;;;25.00;57.60;;;;;;5054939;28;20511;-12
2022/05/21 07:32:24;;;;;;;6.55;4.35;;;25.20;56.10;;;;;;5054989;28;20039;-14
2022/05/21 07:35:00;;;;;;;6.25;4.78;;;25.40;56.40;;;;;;5055014;28;20112;-13
2022/05/21 07:37:26;;;;;;;8.32;5.35;;;25.60;56.00;;;;;;5054891;28;20108;-13
2022/05/21 07:39:52;;;;;;;7.78;5.50;;;25.90;55.50;;;;;;5054915;28;20029;-13
2022/05/21 07:42:18;;;;;;;6.75;4.63;;;25.90;53.60;;;;;;5054496;28;20086;-13
2022/05/21 07:44:44;;;;;;;8.20;4.65;;;26.20;54.30;;;;;;5054635;28;20059;-13
2022/05/21 07:47:11;;;;;;;6.65;4.93;;;26.40;54.00;;;;;;5055068;28;20074;-14
2022/05/21 07:49:37;;;;;;;6.25;4.40;;;26.50;53.40;;;;;;5054755;28;20489;-14
2022/05/21 07:52:04;;;;;;;6.40;4.63;;;26.70;53.10;;;;;;5036722;28;20029;-13
2022/05/21 07:54:30;;;;;;;8.73;5.40;;;26.90;53.00;;;;;;5054395;28;20048;-15
2022/05/21 07:56:56;;;;;;;9.57;4.53;;;26.90;52.00;;;;;;5055037;28;20078;-15
2022/05/21 07:59:23;;;;;;;7.88;3.78;;;27.00;51.60;;;;;;5054681;28;20049;-13
2022/05/21 08:01:49;;;;;;;7.20;4.30;;;27.20;51.60;;;;;;5054359;28;20032;-13
2022/05/21 08:04:17;;;;;;;7.80;4.10;;;27.40;50.20;;;;;;5054094;28;20029;-14
2022/05/21 08:06:43;;;;;;;8.20;4.43;;;27.50;49.60;;;;;;5054545;28;20028;-14
2022/05/21 08:09:10;;;;;;;5.07;3.70;;;27.70;48.70;;;;;;5054193;28;20108;-15
2022/05/21 08:11:37;;;;;;;8.35;3.85;;;27.60;48.70;;;;;;5054422;28;20033;-14
2022/05/21 08:14:03;;;;;;;8.30;4.45;;;27.70;46.70;;;;;;5054486;28;20102;-13
2022/05/21 08:16:30;;;;;;;8.15;4.60;;;27.90;45.80;;;;;;5053866;28;20465;-14
2022/05/21 08:18:56;;;;;;;8.10;3.90;;;28.20;47.70;;;;;;5054264;28;20032;-14
2022/05/21 08:21:23;;;;;;;6.78;3.95;;;28.40;47.70;;;;;;5053863;28;20036;-13
2022/05/21 08:29:18;;;;;;;5.00;3.25;;;29.40;45.50;;;;;;5054064;28;20524;-14
2022/05/21 08:31:43;;;;;;;8.18;4.15;;;29.60;45.00;;;;;;5054076;28;20028;-13
2022/05/21 08:34:10;;;;;;;7.68;3.53;;;29.70;45.10;;;;;;5053970;28;20495;-13
2022/05/21 08:36:36;;;;;;;6.32;3.78;;;29.90;44.80;;;;;;5053298;28;20025;-13
2022/05/21 08:39:03;;;;;;;4.63;3.17;;;29.90;44.70;;;;;;5053556;28;20032;-14
2022/05/21 08:41:32;;;;;;;7.78;4.60;;;30.00;44.70;;;;;;5053905;28;20161;-13
2022/05/21 08:43:58;;;;;;;8.52;4.10;;;29.90;44.80;;;;;;5053363;28;20076;-13
2022/05/21 08:46:43;;;;;;;6.80;3.75;;;29.90;44.70;;;;;;5053475;28;20114;-14
2022/05/21 08:49:33;;;;;;;8.50;5.07;;;30.00;42.50;;;;;;5053394;28;20507;-13
2022/05/21 08:52:18;;;;;;;5.85;3.70;;;29.80;43.50;;;;;;5015347;28;20028;-13
2022/05/21 08:54:46;;;;;;;8.20;4.57;;;30.00;43.50;;;;;;5053782;28;20476;-13
2022/05/21 08:57:17;;;;;;;8.48;4.32;;;30.10;42.40;;;;;;5053903;28;20039;-13
2022/05/21 08:59:53;;;;;;;4.13;3.08;;;30.20;43.10;;;;;;5053362;28;20071;-14
2022/05/21 09:02:26;;;;;;;8.30;3.60;;;30.40;42.80;;;;;;5053224;28;20025;-13
2022/05/21 09:04:52;;;;;;;6.57;3.17;;;30.60;43.30;;;;;;5053701;28;20036;-13
2022/05/21 09:07:21;;;;;;;7.18;3.05;;;30.90;43.40;;;;;;5053123;28;20028;-13
2022/05/21 09:10:10;;;;;;;7.35;3.70;;;31.20;41.70;;;;;;5053137;28;20021;-13
2022/05/21 09:12:56;;;;;;;5.93;3.03;;;31.20;41.00;;;;;;5053220;28;20025;-13
2022/05/21 09:18:14;;;;;;;8.18;3.65;;;31.50;40.20;;;;;;5053488;28;20121;-13
2022/05/21 09:21:00;;;;;;;9.27;3.13;;;31.50;40.20;;;;;;5053004;28;20115;-14
2022/05/21 09:23:53;;;;;;;5.10;3.22;;;31.20;40.40;;;;;;5053243;28;20056;-14
2022/05/21 09:26:22;;;;;;;4.55;2.97;;;31.40;41.00;;;;;;5052946;28;20032;-13
2022/05/21 09:28:48;;;;;;;8.18;4.32;;;31.60;40.90;;;;;;5052565;28;20087;-13
2022/05/21 09:31:30;;;;;;;5.35;3.03;;;31.80;40.00;;;;;;5053239;28;20082;-13
2022/05/21 09:34:19;;;;;;;4.03;3.20;;;31.80;39.90;;;;;;5053005;28;20100;-13
2022/05/21 09:36:45;;;;;;;5.75;3.42;;;31.80;39.90;;;;;;5053167;28;20037;-13
2022/05/21 09:39:14;;;;;;;6.00;3.72;;;31.90;40.40;;;;;;5053555;28;20112;-13
2022/05/21 09:41:40;;;;;;;8.65;4.43;;;31.70;39.70;;;;;;5053002;28;20036;-13
2022/05/21 09:47:33;;;;;;;3.70;3.25;;;31.50;40.50;;;;;;5053390;28;20039;-13
2022/05/21 09:50:09;;;;;;;6.22;3.10;;;31.70;40.30;;;;;;5052831;28;20530;-14
2022/05/21 09:52:36;;;;;;;5.53;3.13;;;31.80;40.20;;;;;;5053200;28;20036;-14
2022/05/21 09:55:05;;;;;;;6.18;3.67;;;32.00;40.50;;;;;;5053206;28;20025;-14
2022/05/21 09:57:39;;;;;;;6.93;3.30;;;32.20;39.50;;;;;;5052885;28;20079;-14
2022/05/21 10:00:34;;;;;;;5.45;2.90;;;32.50;39.40;;;;;;5052847;28;20037;-14
2022/05/21 10:03:10;;;;;;;8.05;3.40;;;32.90;38.40;;;;;;5053133;28;20021;-13
2022/05/21 10:05:44;;;;;;;6.15;3.25;;;33.10;38.20;;;;;;5052558;28;20393;-14
2022/05/21 10:11:10;;;;;;;4.88;3.28;;;33.50;37.00;;;;;;5052928;28;20043;-14
2022/05/21 10:13:47;;;;;;;6.32;3.65;;;33.90;36.40;;;;;;5052758;28;20017;-13
2022/05/21 10:16:46;;;;;;;6.03;3.35;;;34.00;36.20;;;;;;5052608;28;20056;-14
2022/05/21 10:19:25;;;;;;;7.32;4.10;;;34.30;36.00;;;;;;5052895;28;20036;-13
2022/05/21 10:22:07;;;;;;;6.57;3.70;;;34.40;35.20;;;;;;5052522;28;20121;-13
2022/05/21 10:25:04;;;;;;;5.60;2.95;;;34.40;35.80;;;;;;5052320;28;20442;-13
2022/05/21 10:27:38;;;;;;;6.55;3.25;;;34.10;37.30;;;;;;5052423;28;20037;-13
2022/05/21 10:30:24;;;;;;;6.05;3.30;;;34.20;37.20;;;;;;5053016;28;20079;-13
2022/05/21 10:33:01;;;;;;;5.53;3.53;;;34.60;36.30;;;;;;5052390;28;20471;-13
2022/05/21 10:35:58;;;;;;;5.50;3.70;;;35.00;34.40;;;;;;5052539;28;20021;-14
2022/05/21 10:38:44;;;;;;;8.35;3.53;;;35.20;34.30;;;;;;5052294;28;20094;-13
2022/05/21 10:41:13;;;;;;;8.10;3.60;;;35.20;34.40;;;;;;5053576;28;20384;-14
2022/05/21 10:43:45;;;;;;;7.05;4.15;;;35.10;35.30;;;;;;5055921;28;20061;-14
2022/05/21 10:46:35;;;;;;;7.72;3.80;;;35.20;34.30;;;;;;5055851;28;20132;-14
2022/05/21 10:49:34;;;;;;;7.22;3.17;;;35.20;34.40;;;;;;5056095;28;20029;-14
2022/05/21 10:52:23;;;;;;;7.40;3.65;;;35.60;33.80;;;;;;5055969;28;20115;-13
2022/05/21 10:55:05;;;;;;;4.68;3.70;;;36.10;34.70;;;;;;5055844;28;20025;-14
2022/05/21 10:57:58;;;;;;;6.30;3.45;;;36.40;34.00;;;;;;5055639;28;20029;-14
2022/05/21 11:00:45;;;;;;;6.30;3.72;;;36.70;32.80;;;;;;5055318;28;20025;-14
2022/05/21 11:03:14;;;;;;;6.00;3.63;;;36.80;33.90;;;;;;5055531;28;20072;-14
2022/05/21 11:05:49;;;;;;;5.95;3.63;;;36.60;33.90;;;;;;5055605;28;20067;-14
2022/05/21 11:08:20;;;;;;;6.72;3.80;;;36.40;33.60;;;;;;5055173;28;20037;-13
2022/05/21 11:10:46;;;;;;;5.82;4.30;;;36.10;33.40;;;;;;5055894;28;20021;-14
2022/05/21 11:13:19;;;;;;;5.88;3.45;;;35.70;33.80;;;;;;5055620;28;20556;-13
2022/05/21 11:15:57;;;;;;;5.03;3.20;;;35.20;34.50;;;;;;5055755;28;20025;-14
2022/05/21 11:18:41;;;;;;;4.10;3.00;;;35.00;35.00;;;;;;5055152;28;20090;-13
2022/05/21 11:21:17;;;;;;;7.25;3.83;;;35.10;35.10;;;;;;5055252;28;20124;-14
2022/05/21 11:23:58;;;;;;;5.25;3.58;;;35.40;34.10;;;;;;5038650;28;20040;-13
2022/05/21 11:26:53;;;;;;;6.65;3.60;;;35.90;34.20;;;;;;5055146;28;20040;-14
2022/05/21 11:29:35;;;;;;;3.60;3.10;;;36.50;33.20;;;;;;5055364;28;20052;-13
2022/05/21 11:37:51;;;;;;;3.72;3.20;;;37.70;31.70;;;;;;5055230;28;20518;-14
2022/05/21 11:41:24;;;;;;;4.20;3.30;;;37.70;32.10;;;;;;5054670;28;20021;-14
2022/05/21 11:46:50;;;;;;;7.07;3.60;;;38.20;31.50;;;;;;5055139;28;20044;-14
2022/05/21 11:49:42;;;;;;;5.22;3.20;;;38.10;31.10;;;;;;5054934;28;20110;-14
2022/05/21 11:52:29;;;;;;;4.43;3.30;;;38.20;30.90;;;;;;5054523;28;20036;-14
2022/05/21 11:54:54;;;;;;;4.68;3.45;;;38.20;30.90;;;;;;5054712;28;20037;-14
2022/05/21 11:57:47;;;;;;;3.53;3.15;;;38.40;30.50;;;;;;5054834;28;20561;-14
2022/05/21 12:00:18;;;;;;;8.00;3.30;;;38.50;30.90;;;;;;5054733;28;20051;-14
2022/05/21 12:02:53;;;;;;;6.15;3.65;;;38.70;30.50;;;;;;5054661;28;20065;-14
2022/05/21 12:05:34;;;;;;;5.45;4.43;;;38.90;30.50;;;;;;5054537;28;20024;-14
2022/05/21 12:08:25;;;;;;;5.68;3.83;;;39.20;29.90;;;;;;5054469;28;20031;-13
2022/05/21 12:11:11;;;;;;;6.53;4.05;;;38.90;30.00;;;;;;5055202;28;20025;-14
2022/05/21 12:13:39;;;;;;;10.63;4.38;;;38.20;30.50;;;;;;5054451;28;20021;-13
2022/05/21 12:16:16;;;;;;;4.28;3.72;;;37.60;31.80;;;;;;5054291;28;20024;-14
2022/05/21 12:18:54;;;;;;;6.18;4.00;;;37.10;32.10;;;;;;5054766;28;20043;-14
2022/05/21 12:21:29;;;;;;;6.25;4.38;;;36.80;32.90;;;;;;5053979;28;20057;-14
2022/05/21 12:23:55;;;;;;;7.57;4.00;;;36.90;33.30;;;;;;5054271;28;20036;-14
2022/05/21 12:26:23;;;;;;;6.05;3.72;;;37.30;32.20;;;;;;5053682;28;20513;-13
2022/05/21 12:29:11;;;;;;;6.97;4.30;;;37.40;33.00;;;;;;5054214;28;20033;-13
2022/05/21 12:31:43;;;;;;;5.80;3.90;;;37.60;30.70;;;;;;5041801;28;20051;-14
2022/05/21 12:34:28;;;;;;;7.95;3.80;;;37.90;32.70;;;;;;5053839;28;20032;-14
2022/05/21 12:37:28;;;;;;;6.90;3.30;;;38.20;32.30;;;;;;5053595;28;20043;-13
2022/05/21 12:40:13;;;;;;;6.90;3.95;;;38.50;31.40;;;;;;5054011;28;20108;-14
2022/05/21 12:42:57;;;;;;;7.45;3.47;;;38.90;29.30;;;;;;5035758;28;20027;-14
2022/05/21 12:45:53;;;;;;;8.18;3.92;;;39.00;30.20;;;;;;5053431;28;20048;-14
2022/05/21 12:48:32;;;;;;;6.88;3.83;;;39.10;29.30;;;;;;5035522;28;20029;-13
2022/05/21 12:51:00;;;;;;;5.50;3.97;;;39.20;29.90;;;;;;5053594;28;20025;-14
2022/05/21 12:53:28;;;;;;;9.35;4.50;;;39.30;29.70;;;;;;5053393;28;20021;-13
2022/05/21 12:56:20;;;;;;;7.07;4.30;;;39.30;29.60;;;;;;5053871;28;20064;-13
2022/05/21 12:58:46;;;;;;;;;;;38.90;29.80;;;;;;5054311;28;20028;-14
2022/05/21 13:01:29;;;;;;;8.38;4.97;;;38.40;30.30;;;;;;5053555;28;20388;-14
2022/05/21 13:03:55;;;;;;;8.98;3.92;;;38.40;30.70;;;;;;5052945;28;20492;-14
2022/05/21 13:06:26;;;;;;;4.45;3.42;;;38.00;31.80;;;;;;5053012;28;20381;-14
2022/05/21 13:08:53;;;;;;;6.10;3.90;;;38.00;32.40;;;;;;5053194;28;20495;-14
2022/05/21 13:11:22;;;;;;;8.35;4.50;;;38.10;32.30;;;;;;5053230;28;20024;-14
2022/05/21 13:14:10;;;;;;;5.95;4.15;;;38.00;32.30;;;;;;5053380;28;20033;-14
2022/05/21 13:16:54;;;;;;;6.35;3.75;;;37.90;32.00;;;;;;5052968;28;20392;-14
2022/05/21 13:19:41;;;;;;;9.40;5.03;;;37.90;32.30;;;;;;5053307;28;20449;-14
2022/05/21 13:22:24;;;;;;;7.35;3.88;;;38.10;32.40;;;;;;5053216;28;20385;-14
2022/05/21 13:25:10;;;;;;;7.68;4.50;;;38.10;32.10;;;;;;5053572;28;20032;-14
2022/05/21 13:27:45;;;;;;;6.82;3.90;;;38.00;33.10;;;;;;5053018;28;20033;-14
2022/05/21 13:30:17;;;;;;;8.30;4.47;;;38.10;31.60;;;;;;5053252;28;20025;-14